createdAt,value
2023-05-22T00:01:49.470Z,100486.25
2023-05-22T00:04:21.506Z,100464.66
2023-05-22T00:06:49.945Z,100471.25
2023-05-22T00:09:17.469Z,100480.72
2023-05-22T00:11:45.601Z,100485.16
2023-05-22T00:14:16.202Z,100468.50
2023-05-22T00:16:44.009Z,100490.22
2023-05-22T00:19:16.797Z,100486.56
2023-05-22T00:21:44.699Z,100489.88
2023-05-22T00:24:12.440Z,100484.59
2023-05-22T00:26:39.895Z,100487.69
2023-05-22T00:29:07.354Z,100488.47
2023-05-22T00:31:34.830Z,100472.34
2023-05-22T00:34:02.607Z,100481.50
2023-05-22T00:36:30.029Z,100481.25
2023-05-22T00:38:57.414Z,100473.56
2023-05-22T00:41:24.927Z,100479.53
2023-05-22T00:43:52.354Z,100479.53
2023-05-22T00:46:25.052Z,100483.09
2023-05-22T00:48:53.222Z,100475.97
2023-05-22T00:51:22.396Z,100478.19
2023-05-22T00:53:50.569Z,100485.13
2023-05-22T00:56:19.479Z,100478.97
2023-05-22T00:58:46.968Z,100477.09
2023-05-22T01:01:15.641Z,100486.97
2023-05-22T01:03:46.908Z,100482.13
2023-05-22T01:06:15.986Z,100478.19
2023-05-22T01:08:45.512Z,100472.38
2023-05-22T01:11:35.846Z,100487.16
2023-05-22T01:14:11.756Z,100470.28
2023-05-22T01:17:00.185Z,100478.31
2023-05-22T01:20:07.067Z,100475.59
2023-05-22T01:23:16.306Z,100472.13
2023-05-22T01:25:53.084Z,100472.13
2023-05-22T01:28:45.390Z,100466.72
2023-05-22T01:31:17.393Z,100471.16
2023-05-22T01:34:00.837Z,100468.56
2023-05-22T01:36:35.039Z,100468.16
2023-05-22T01:39:06.209Z,100466.56
2023-05-22T01:41:34.347Z,100474.22
2023-05-22T01:44:02.303Z,100468.03
2023-05-22T01:46:31.487Z,100468.69
2023-05-22T01:48:59.743Z,100477.91
2023-05-22T01:51:42.123Z,100470.00
2023-05-22T01:54:37.196Z,100476.66
2023-05-22T01:57:12.973Z,100475.91
2023-05-22T01:59:48.615Z,100466.38
2023-05-22T02:02:20.027Z,100468.84
2023-05-22T02:04:55.880Z,100467.97
2023-05-22T02:07:27.163Z,100459.25
2023-05-22T02:09:57.772Z,100470.69
2023-05-22T02:12:25.953Z,100467.34
2023-05-22T02:14:53.958Z,100463.13
2023-05-22T02:17:22.198Z,100463.13
2023-05-22T02:19:49.688Z,100457.84
2023-05-22T02:22:17.190Z,100448.47
2023-05-22T02:24:48.126Z,100458.63
2023-05-22T02:27:17.449Z,100451.25
2023-05-22T02:29:44.862Z,100449.88
2023-05-22T02:32:12.314Z,100446.88
2023-05-22T02:34:39.618Z,100443.63
2023-05-22T02:37:16.022Z,100448.13
2023-05-22T02:39:43.580Z,100449.84
2023-05-22T02:42:13.307Z,100452.13
2023-05-22T02:44:41.014Z,100449.69
2023-05-22T02:47:08.551Z,100444.47
2023-05-22T02:49:36.022Z,100440.16
2023-05-22T02:52:04.232Z,100444.28
2023-05-22T02:54:31.680Z,100450.72
2023-05-22T02:57:03.204Z,100445.78
2023-05-22T02:59:31.757Z,100453.34
2023-05-22T03:01:59.226Z,100442.34
2023-05-22T03:04:26.755Z,100445.13
2023-05-22T03:06:54.798Z,100435.94
2023-05-22T03:09:22.260Z,100439.06
2023-05-22T03:11:51.547Z,100438.84
2023-05-22T03:14:19.144Z,100434.97
2023-05-22T03:16:49.018Z,100443.72
2023-05-22T03:19:17.434Z,100440.03
2023-05-22T03:21:44.904Z,100443.84
2023-05-22T03:24:13.439Z,100451.09
2023-05-22T03:26:42.039Z,100453.66
2023-05-22T03:29:14.215Z,100446.88
2023-05-22T03:31:42.484Z,100446.84
2023-05-22T03:34:13.620Z,100433.59
2023-05-22T03:36:45.140Z,100442.47
2023-05-22T03:39:18.156Z,100446.44
2023-05-22T03:41:54.890Z,100441.56
2023-05-22T03:44:24.577Z,100444.59
2023-05-22T03:46:53.738Z,100454.81
2023-05-22T03:49:21.835Z,100450.03
2023-05-22T03:51:49.199Z,100445.50
2023-05-22T03:54:17.259Z,100459.25
2023-05-22T03:56:44.695Z,100449.84
2023-05-22T03:59:12.191Z,100456.53
2023-05-22T04:01:40.401Z,100463.63
2023-05-22T04:04:09.685Z,100466.19
2023-05-22T04:06:43.175Z,100461.00
2023-05-22T04:09:13.755Z,100461.09
2023-05-22T04:11:42.345Z,100455.16
2023-05-22T04:14:10.056Z,100454.53
2023-05-22T04:16:37.521Z,100470.13
2023-05-22T04:19:05.890Z,100473.97
2023-05-22T04:21:34.631Z,100477.13
2023-05-22T04:24:07.286Z,100457.41
2023-05-22T04:26:36.132Z,100454.06
2023-05-22T04:29:03.946Z,100467.28
2023-05-22T04:31:32.532Z,100461.75
2023-05-22T04:34:00.350Z,100476.78
2023-05-22T04:36:28.068Z,100477.75
2023-05-22T04:38:55.676Z,100469.75
2023-05-22T04:41:26.523Z,100476.78
2023-05-22T04:43:54.889Z,100477.34
2023-05-22T04:46:22.876Z,100476.56
2023-05-22T04:48:51.289Z,100484.38
2023-05-22T04:51:18.752Z,100489.16
2023-05-22T04:53:47.326Z,100485.59
2023-05-22T04:56:18.646Z,100491.63
2023-05-22T04:58:53.955Z,100488.91
2023-05-22T05:01:23.081Z,100481.03
2023-05-22T05:03:51.115Z,100476.84
2023-05-22T05:06:21.659Z,100481.81
2023-05-22T05:08:50.139Z,100490.56
2023-05-22T05:11:17.628Z,100480.06
2023-05-22T05:13:45.090Z,100486.25
2023-05-22T05:16:12.978Z,100481.16
2023-05-22T05:18:40.992Z,100474.22
2023-05-22T05:21:08.900Z,100480.16
2023-05-22T05:23:36.267Z,100490.22
2023-05-22T05:26:04.055Z,100478.19
2023-05-22T05:28:31.597Z,100489.81
2023-05-22T05:31:02.044Z,100481.13
2023-05-22T05:33:47.807Z,100485.25
2023-05-22T05:36:27.390Z,100485.59
2023-05-22T05:38:56.718Z,100493.56
2023-05-22T05:41:24.712Z,100481.41
2023-05-22T05:44:00.190Z,100483.00
2023-05-22T05:46:35.864Z,100488.97
2023-05-22T05:49:12.323Z,100489.63
2023-05-22T05:51:41.932Z,100493.63
2023-05-22T05:54:11.220Z,100498.69
2023-05-22T05:56:39.924Z,100494.19
2023-05-22T05:59:07.344Z,100493.75
2023-05-22T06:01:38.848Z,100494.19
2023-05-22T06:04:12.776Z,100487.13
2023-05-22T06:06:42.417Z,100496.16
2023-05-22T06:09:10.335Z,100496.28
2023-05-22T06:12:01.885Z,100499.22
2023-05-22T06:14:30.837Z,100499.31
2023-05-22T06:16:59.110Z,100492.41
2023-05-22T06:19:27.334Z,100502.16
2023-05-22T06:21:55.191Z,100504.22
2023-05-22T06:24:23.152Z,100496.97
2023-05-22T06:26:51.021Z,100510.56
2023-05-22T06:29:18.664Z,100514.03
2023-05-22T06:31:47.650Z,100502.50
2023-05-22T06:34:18.385Z,100506.19
2023-05-22T06:36:46.084Z,100503.59
2023-05-22T06:39:14.224Z,100506.25
2023-05-22T06:42:00.214Z,100507.19
2023-05-22T06:44:44.594Z,100505.81
2023-05-22T06:47:11.974Z,100504.97
2023-05-22T06:49:40.347Z,100500.69
2023-05-22T06:52:07.880Z,100507.38
2023-05-22T06:54:35.392Z,100493.38
2023-05-22T06:57:03.859Z,100498.41
2023-05-22T06:59:32.181Z,100493.25
2023-05-22T07:02:05.906Z,100502.78
2023-05-22T07:04:49.196Z,100498.94
2023-05-22T07:07:23.831Z,100500.09
2023-05-22T07:09:51.467Z,100488.88
2023-05-22T07:12:20.389Z,100503.34
2023-05-22T07:14:47.779Z,100500.63
2023-05-22T07:17:15.096Z,100500.75
2023-05-22T07:19:45.163Z,100500.97
2023-05-22T07:22:12.845Z,100506.41
2023-05-22T07:24:41.074Z,100493.44
2023-05-22T07:27:09.305Z,100502.84
2023-05-22T07:29:38.134Z,100503.59
2023-05-22T07:32:07.278Z,100500.34
2023-05-22T07:34:35.983Z,100505.44
2023-05-22T07:37:09.163Z,100504.16
2023-05-22T07:39:36.734Z,100497.63
2023-05-22T07:42:06.235Z,100505.03
2023-05-22T07:44:38.033Z,100502.13
2023-05-22T07:47:06.021Z,100507.94
2023-05-22T07:49:34.971Z,100507.47
2023-05-22T07:52:02.606Z,100501.75
2023-05-22T07:54:30.130Z,100504.84
2023-05-22T07:56:58.131Z,100501.75
2023-05-22T07:59:30.595Z,100507.16
2023-05-22T08:01:59.805Z,100501.88
2023-05-22T08:04:27.619Z,100508.16
2023-05-22T08:06:55.654Z,100490.03
2023-05-22T08:09:23.416Z,100489.09
2023-05-22T08:11:50.888Z,100490.16
2023-05-22T08:14:18.268Z,100491.88
2023-05-22T08:16:45.866Z,100490.63
2023-05-22T08:19:13.452Z,100480.44
2023-05-22T08:21:40.937Z,100491.31
2023-05-22T08:24:08.729Z,100486.31
2023-05-22T08:26:36.806Z,100485.72
2023-05-22T08:29:04.283Z,100482.25
2023-05-22T08:31:34.287Z,100482.13
2023-05-22T08:34:06.396Z,100482.84
2023-05-22T08:36:34.211Z,100488.03
2023-05-22T08:39:02.147Z,100494.44
2023-05-22T08:41:30.344Z,100482.22
2023-05-22T08:43:57.954Z,100485.09
2023-05-22T08:46:29.434Z,100479.78
2023-05-22T08:48:58.267Z,100484.81
2023-05-22T08:51:31.518Z,100477.31
2023-05-22T08:54:00.332Z,100475.06
2023-05-22T08:56:29.683Z,100483.97
2023-05-22T08:58:59.876Z,100487.28
2023-05-22T09:01:29.394Z,100483.84
2023-05-22T09:04:01.908Z,100482.69
2023-05-22T09:06:30.064Z,100476.53
2023-05-22T09:09:01.557Z,100472.78
2023-05-22T09:11:29.064Z,100482.25
2023-05-22T09:14:08.056Z,100473.19
2023-05-22T09:16:47.871Z,100476.38
2023-05-22T09:19:16.077Z,100463.88
2023-05-22T09:21:44.598Z,100471.19
2023-05-22T09:24:12.404Z,100476.09
2023-05-22T09:26:40.488Z,100474.94
2023-05-22T09:29:08.617Z,100457.25
2023-05-22T09:31:44.348Z,100459.53
2023-05-22T09:34:17.612Z,100469.72
2023-05-22T09:36:46.461Z,100470.81
2023-05-22T09:39:14.169Z,100463.88
2023-05-22T09:41:41.538Z,100460.16
2023-05-22T09:44:13.886Z,100467.44
2023-05-22T09:46:46.172Z,100471.06
2023-05-22T09:49:16.428Z,100465.00
2023-05-22T09:51:47.864Z,100467.81
2023-05-22T09:54:17.474Z,100476.50
2023-05-22T09:56:50.970Z,100461.63
2023-05-22T09:59:26.683Z,100458.59
2023-05-22T10:01:54.673Z,100461.63
2023-05-22T10:04:23.093Z,100465.47
2023-05-22T10:06:52.738Z,100448.22
2023-05-22T10:09:31.090Z,100454.94
2023-05-22T10:12:04.365Z,100456.22
2023-05-22T10:14:34.588Z,100455.91
2023-05-22T10:17:04.813Z,100455.88
2023-05-22T10:19:33.666Z,100453.59
2023-05-22T10:22:01.700Z,100439.72
2023-05-22T10:24:30.073Z,100439.97
2023-05-22T10:26:57.928Z,100441.31
2023-05-22T10:29:33.355Z,100440.78
2023-05-22T10:32:18.550Z,100443.16
2023-05-22T10:35:02.182Z,100437.56
2023-05-22T10:37:52.241Z,100443.25
2023-05-22T10:40:28.850Z,100439.56
2023-05-22T10:43:00.917Z,100430.09
2023-05-22T10:45:29.389Z,100430.78
2023-05-22T10:48:06.874Z,100425.16
2023-05-22T10:50:35.695Z,100428.44
2023-05-22T10:53:24.154Z,100427.28
2023-05-22T10:56:02.548Z,100434.69
2023-05-22T10:58:32.047Z,100434.72
2023-05-22T11:01:09.798Z,100433.44
2023-05-22T11:04:13.039Z,100421.66
2023-05-22T11:07:06.771Z,100421.84
2023-05-22T11:09:43.282Z,100429.38
2023-05-22T11:12:24.948Z,100425.69
2023-05-22T11:14:57.292Z,100418.38
2023-05-22T11:17:27.775Z,100421.00
2023-05-22T11:20:06.808Z,100410.63
2023-05-22T11:22:41.412Z,100416.03
2023-05-22T11:25:17.920Z,100417.59
2023-05-22T11:27:47.310Z,100408.41
2023-05-22T11:30:16.326Z,100410.00
2023-05-22T11:32:45.866Z,100411.59
2023-05-22T11:35:18.444Z,100417.44
2023-05-22T11:37:46.692Z,100416.88
2023-05-22T11:40:18.891Z,100411.06
2023-05-22T11:42:46.772Z,100403.75
2023-05-22T11:45:15.228Z,100406.72
2023-05-22T11:47:43.684Z,100399.81
2023-05-22T11:50:22.550Z,100403.84
2023-05-22T11:52:59.391Z,100407.31
2023-05-22T11:55:26.858Z,100405.72
2023-05-22T11:57:55.574Z,100407.19
2023-05-22T12:00:22.990Z,100395.69
2023-05-22T12:02:50.691Z,100404.28
2023-05-22T12:05:21.425Z,100406.13
2023-05-22T12:07:48.878Z,100402.75
2023-05-22T12:10:16.521Z,100392.56
2023-05-22T12:12:44.243Z,100397.06
2023-05-22T12:15:12.003Z,100400.34
2023-05-22T12:17:40.073Z,100387.97
2023-05-22T12:20:07.968Z,100390.44
2023-05-22T12:22:41.087Z,100391.25
2023-05-22T12:25:17.637Z,100386.31
2023-05-22T12:27:46.075Z,100388.22
2023-05-22T12:30:14.678Z,100385.44
2023-05-22T12:32:47.524Z,100389.19
2023-05-22T12:35:16.722Z,100394.91
2023-05-22T12:37:51.761Z,100396.25
2023-05-22T12:40:19.450Z,100395.91
2023-05-22T12:42:47.958Z,100389.47
2023-05-22T12:45:17.726Z,100389.28
2023-05-22T12:47:45.276Z,100387.13
2023-05-22T12:50:12.845Z,100384.53
2023-05-22T12:52:40.368Z,100376.88
2023-05-22T12:55:09.562Z,100386.13
2023-05-22T12:57:37.000Z,100393.88
2023-05-22T13:00:06.021Z,100389.63
2023-05-22T13:02:34.068Z,100382.97
2023-05-22T13:05:01.478Z,100376.94
2023-05-22T13:07:29.024Z,100379.25
2023-05-22T13:09:56.446Z,100378.94
2023-05-22T13:12:23.912Z,100378.34
2023-05-22T13:14:51.253Z,100377.63
2023-05-22T13:17:18.693Z,100372.94
2023-05-22T13:19:46.007Z,100364.00
2023-05-22T13:22:14.836Z,100372.72
2023-05-22T13:24:42.168Z,100365.28
2023-05-22T13:27:09.796Z,100362.97
2023-05-22T13:29:37.195Z,100356.34
2023-05-22T13:32:06.957Z,100354.16
2023-05-22T13:34:34.585Z,100354.47
2023-05-22T13:37:02.422Z,100350.72
2023-05-22T13:39:33.512Z,100345.50
2023-05-22T13:42:01.472Z,100337.31
2023-05-22T13:44:28.820Z,100349.66
2023-05-22T13:46:56.354Z,100347.56
2023-05-22T13:49:23.716Z,100340.03
2023-05-22T13:51:51.080Z,100331.00
2023-05-22T13:54:18.538Z,100323.66
2023-05-22T13:56:46.018Z,100327.78
2023-05-22T13:59:13.373Z,100323.34
2023-05-22T14:01:41.623Z,100315.06
2023-05-22T14:04:09.068Z,100319.25
2023-05-22T14:06:36.680Z,100318.00
2023-05-22T14:09:07.938Z,100310.03
2023-05-22T14:11:35.708Z,100314.94
2023-05-22T14:14:03.252Z,100324.47
2023-05-22T14:16:30.744Z,100314.56
2023-05-22T14:19:00.317Z,100316.59
2023-05-22T14:21:27.885Z,100319.50
2023-05-22T14:23:55.347Z,100309.28
2023-05-22T14:26:24.268Z,100308.72
2023-05-22T14:28:52.937Z,100309.28
2023-05-22T14:31:21.318Z,100301.44
2023-05-22T14:33:49.263Z,100304.44
2023-05-22T14:36:17.885Z,100299.00
2023-05-22T14:38:45.310Z,100305.47
2023-05-22T14:41:13.038Z,100303.44
2023-05-22T14:43:40.493Z,100300.22
2023-05-22T14:46:07.933Z,100294.94
2023-05-22T14:48:35.402Z,100295.25
2023-05-22T14:51:02.718Z,100292.13
2023-05-22T14:53:30.327Z,100291.28
2023-05-22T14:55:57.759Z,100292.59
2023-05-22T14:58:25.129Z,100284.53
2023-05-22T15:00:52.609Z,100284.25
2023-05-22T15:03:21.542Z,100283.78
2023-05-22T15:05:49.069Z,100282.78
2023-05-22T15:08:19.071Z,100271.44
2023-05-22T15:10:46.679Z,100276.50
2023-05-22T15:13:14.597Z,100269.75
2023-05-22T15:15:42.253Z,100275.06
2023-05-22T15:18:09.816Z,100270.19
2023-05-22T15:20:37.203Z,100273.66
2023-05-22T15:23:05.911Z,100269.75
2023-05-22T15:25:36.458Z,100267.75
2023-05-22T15:28:06.376Z,100267.91
2023-05-22T15:30:39.253Z,100268.59
2023-05-22T15:33:07.159Z,100271.63
2023-05-22T15:35:34.618Z,100255.56
2023-05-22T15:38:03.143Z,100260.13
2023-05-22T15:40:31.046Z,100251.38
2023-05-22T15:43:01.658Z,100263.56
2023-05-22T15:45:29.154Z,100254.97
2023-05-22T15:47:56.892Z,100254.44
2023-05-22T15:50:24.354Z,100259.47
2023-05-22T15:52:52.063Z,100251.88
2023-05-22T15:55:19.564Z,100252.59
2023-05-22T15:57:46.969Z,100250.16
2023-05-22T16:00:16.075Z,100259.91
2023-05-22T16:02:45.236Z,100249.34
2023-05-22T16:05:12.769Z,100255.66
2023-05-22T16:07:40.173Z,100249.63
2023-05-22T16:10:08.149Z,100252.66
2023-05-22T16:12:35.726Z,100246.50
2023-05-22T16:15:06.540Z,100245.63
2023-05-22T16:17:34.496Z,100239.75
2023-05-22T16:20:02.309Z,100246.91
2023-05-22T16:22:44.169Z,100245.66
2023-05-22T16:25:17.006Z,100243.16
2023-05-22T16:27:44.535Z,100252.94
2023-05-22T16:30:12.342Z,100248.44
2023-05-22T16:32:40.094Z,100255.50
2023-05-22T16:35:07.827Z,100251.19
2023-05-22T16:37:36.079Z,100256.78
2023-05-22T16:40:04.923Z,100249.91
2023-05-22T16:42:32.357Z,100260.81
2023-05-22T16:44:59.817Z,100257.41
2023-05-22T16:47:27.280Z,100250.66
2023-05-22T16:49:54.663Z,100255.81
2023-05-22T16:52:23.617Z,100262.56
2023-05-22T16:54:51.028Z,100264.84
2023-05-22T16:57:18.742Z,100253.53
2023-05-22T16:59:46.287Z,100259.41
2023-05-22T17:02:13.940Z,100260.16
2023-05-22T17:04:41.326Z,100255.09
2023-05-22T17:07:08.766Z,100272.03
2023-05-22T17:09:36.263Z,100270.75
2023-05-22T17:12:03.911Z,100272.19
2023-05-22T17:14:33.505Z,100269.75
2023-05-22T17:17:00.956Z,100274.03
2023-05-22T17:19:28.467Z,100269.22
2023-05-22T17:21:56.755Z,100275.91
2023-05-22T17:24:24.682Z,100280.25
2023-05-22T17:26:52.506Z,100276.38
2023-05-22T17:29:19.951Z,100281.53
2023-05-22T17:31:47.800Z,100284.25
2023-05-22T17:34:15.228Z,100284.41
2023-05-22T17:36:44.763Z,100293.03
2023-05-22T17:39:12.671Z,100297.34
2023-05-22T17:41:40.239Z,100299.91
2023-05-22T17:44:07.661Z,100302.91
2023-05-22T17:46:35.485Z,100288.44
2023-05-22T17:49:02.993Z,100302.91
2023-05-22T17:51:30.726Z,100306.63
2023-05-22T17:53:59.094Z,100318.97
2023-05-22T17:56:26.738Z,100319.09
2023-05-22T17:58:54.179Z,100320.25
2023-05-22T18:01:21.593Z,100318.97
2023-05-22T18:03:49.270Z,100326.97
2023-05-22T18:06:16.843Z,100327.28
2023-05-22T18:08:44.350Z,100324.41
2023-05-22T18:11:11.771Z,100330.56
2023-05-22T18:13:41.810Z,100336.72
2023-05-22T18:16:09.269Z,100335.69
2023-05-22T18:18:36.717Z,100332.09
2023-05-22T18:21:04.376Z,100345.69
2023-05-22T18:23:31.810Z,100338.38
2023-05-22T18:25:59.229Z,100352.09
2023-05-22T18:28:27.378Z,100349.19
2023-05-22T18:30:54.989Z,100361.69
2023-05-22T18:33:24.720Z,100351.50
2023-05-22T18:35:52.661Z,100354.06
2023-05-22T18:38:22.121Z,100357.38
2023-05-22T18:40:49.720Z,100359.22
2023-05-22T18:43:17.184Z,100351.59
2023-05-22T18:45:44.579Z,100359.94
2023-05-22T18:48:12.052Z,100364.78
2023-05-22T18:50:39.834Z,100356.72
2023-05-22T18:53:07.346Z,100371.66
2023-05-22T18:55:34.793Z,100365.03
2023-05-22T18:58:02.322Z,100364.31
2023-05-22T19:00:30.772Z,100357.97
2023-05-22T19:02:58.268Z,100378.00
2023-05-22T19:05:26.264Z,100374.09
2023-05-22T19:07:53.851Z,100373.38
2023-05-22T19:10:21.283Z,100377.63
2023-05-22T19:12:48.692Z,100377.91
2023-05-22T19:15:16.307Z,100391.66
2023-05-22T19:17:43.837Z,100378.63
2023-05-22T19:20:12.260Z,100379.47
2023-05-22T19:22:39.893Z,100391.59
2023-05-22T19:25:08.020Z,100391.03
2023-05-22T19:27:37.311Z,100390.03
2023-05-22T19:30:10.563Z,100403.53
2023-05-22T19:32:37.948Z,100403.06
2023-05-22T19:35:05.839Z,100409.63
2023-05-22T19:37:33.302Z,100401.72
2023-05-22T19:40:01.144Z,100407.56
2023-05-22T19:42:28.898Z,100416.97
2023-05-22T19:44:56.400Z,100419.47
2023-05-22T19:47:23.916Z,100414.94
2023-05-22T19:49:51.355Z,100421.78
2023-05-22T19:52:18.885Z,100427.13
2023-05-22T19:54:46.490Z,100430.22
2023-05-22T19:57:13.951Z,100434.06
2023-05-22T19:59:41.610Z,100428.34
2023-05-22T20:02:09.207Z,100433.44
2023-05-22T20:04:39.042Z,100441.47
2023-05-22T20:07:07.329Z,100436.28
2023-05-22T20:09:34.939Z,100443.56
2023-05-22T20:12:02.501Z,100441.88
2023-05-22T20:14:30.138Z,100435.06
2023-05-22T20:16:59.180Z,100447.91
2023-05-22T20:19:27.665Z,100453.84
2023-05-22T20:21:56.414Z,100449.16
2023-05-22T20:24:25.333Z,100444.72
2023-05-22T20:26:53.032Z,100459.16
2023-05-22T20:29:20.620Z,100445.47
2023-05-22T20:31:48.364Z,100451.41
2023-05-22T20:34:15.805Z,100448.94
2023-05-22T20:36:44.946Z,100451.16
2023-05-22T20:39:12.529Z,100444.97
2023-05-22T20:41:40.013Z,100450.03
2023-05-22T20:44:07.839Z,100454.59
2023-05-22T20:46:35.582Z,100447.53
2023-05-22T20:49:04.865Z,100441.25
2023-05-22T20:51:32.721Z,100465.28
2023-05-22T20:54:00.885Z,100451.44
2023-05-22T20:56:28.984Z,100462.16
2023-05-22T20:58:59.428Z,100465.25
2023-05-22T21:01:29.512Z,100463.38
2023-05-22T21:03:57.027Z,100453.13
2023-05-22T21:06:24.505Z,100459.53
2023-05-22T21:08:53.995Z,100468.00
2023-05-22T21:11:21.745Z,100465.56
2023-05-22T21:13:49.139Z,100464.28
2023-05-22T21:16:16.667Z,100459.47
2023-05-22T21:18:44.199Z,100468.63
2023-05-22T21:21:11.636Z,100467.22
2023-05-22T21:23:39.050Z,100460.06
2023-05-22T21:26:06.436Z,100469.44
2023-05-22T21:28:33.979Z,100458.97
2023-05-22T21:31:01.452Z,100458.66
2023-05-22T21:33:28.834Z,100467.28
2023-05-22T21:35:56.478Z,100465.81
2023-05-22T21:38:23.839Z,100471.44
2023-05-22T21:40:51.230Z,100462.34
2023-05-22T21:43:18.652Z,100462.56
2023-05-22T21:45:46.082Z,100453.06
2023-05-22T21:48:13.437Z,100471.06
2023-05-22T21:50:41.009Z,100464.09
2023-05-22T21:53:08.619Z,100471.06
2023-05-22T21:55:36.274Z,100469.66
2023-05-22T21:58:03.700Z,100473.56
2023-05-22T22:00:31.124Z,100473.47
2023-05-22T22:02:58.612Z,100482.44
2023-05-22T22:05:27.598Z,100464.59
2023-05-22T22:07:55.056Z,100472.84
2023-05-22T22:10:22.763Z,100464.72
2023-05-22T22:12:50.140Z,100468.19
2023-05-22T22:15:17.559Z,100456.22
2023-05-22T22:17:45.306Z,100448.66
2023-05-22T22:20:12.855Z,100465.22
2023-05-22T22:22:40.805Z,100451.47
2023-05-22T22:25:08.529Z,100459.88
2023-05-22T22:27:36.902Z,100463.44
2023-05-22T22:30:04.937Z,100445.41
2023-05-22T22:32:32.365Z,100452.84
2023-05-22T22:34:59.862Z,100449.09
2023-05-22T22:37:27.256Z,100456.56
2023-05-22T22:39:54.613Z,100454.19
2023-05-22T22:42:22.003Z,100455.28
2023-05-22T22:44:49.406Z,100448.81
2023-05-22T22:47:17.333Z,100454.63
2023-05-22T22:49:44.733Z,100449.44
2023-05-22T22:52:12.098Z,100444.56
2023-05-22T22:54:39.559Z,100448.03
2023-05-22T22:57:07.824Z,100447.28
2023-05-22T22:59:37.909Z,100444.47
2023-05-22T23:02:05.622Z,100446.31
2023-05-22T23:04:33.255Z,100454.88
2023-05-22T23:07:00.775Z,100458.00
2023-05-22T23:09:28.237Z,100449.22
2023-05-22T23:11:55.704Z,100440.38
2023-05-22T23:14:24.802Z,100448.06
2023-05-22T23:16:52.195Z,100458.88
2023-05-22T23:19:19.696Z,100450.22
2023-05-22T23:21:47.083Z,100440.72
2023-05-22T23:24:14.555Z,100446.13
2023-05-22T23:26:41.936Z,100448.81
2023-05-22T23:29:09.326Z,100445.16
2023-05-22T23:31:37.121Z,100440.28
2023-05-22T23:34:04.517Z,100446.53
2023-05-22T23:36:32.656Z,100444.81
2023-05-22T23:39:00.189Z,100446.75
2023-05-22T23:41:27.590Z,100448.91
2023-05-22T23:43:54.959Z,100444.06
2023-05-22T23:46:24.420Z,100443.38
2023-05-22T23:48:52.162Z,100437.44
2023-05-22T23:51:19.818Z,100436.44
2023-05-22T23:53:47.124Z,100437.19
2023-05-22T23:56:14.474Z,100446.91
2023-05-22T23:58:41.851Z,100447.31
